createdAt,value
2024-01-17T00:01:51.921Z,17.90
2024-01-17T00:03:54.454Z,18.50
2024-01-17T00:05:58.240Z,16.50
2024-01-17T00:08:01.121Z,18.10
2024-01-17T00:10:04.163Z,16.60
2024-01-17T00:12:07.745Z,17.90
2024-01-17T00:14:10.778Z,18.30
2024-01-17T00:16:21.504Z,17.80
2024-01-17T00:18:24.356Z,17.70
2024-01-17T00:20:26.973Z,19.60
2024-01-17T00:22:29.544Z,19.50
2024-01-17T00:24:32.121Z,18.90
2024-01-17T00:26:34.741Z,20.00
2024-01-17T00:28:37.502Z,18.30
2024-01-17T00:30:40.075Z,21.20
2024-01-17T00:32:45.914Z,20.50
2024-01-17T00:34:48.573Z,21.50
2024-01-17T00:36:51.244Z,21.00
2024-01-17T00:38:53.812Z,20.80
2024-01-17T00:40:59.402Z,22.20
2024-01-17T00:43:02.093Z,20.80
2024-01-17T00:45:06.120Z,20.80
2024-01-17T00:47:09.297Z,19.30
2024-01-17T00:49:12.213Z,22.80
2024-01-17T00:51:23.120Z,20.00
2024-01-17T00:53:26.106Z,21.00
2024-01-17T00:55:34.399Z,19.90
2024-01-17T00:57:37.027Z,19.30
2024-01-17T00:59:40.436Z,22.10
2024-01-17T01:01:43.039Z,20.20
2024-01-17T01:03:46.653Z,22.20
2024-01-17T01:05:49.385Z,21.00
2024-01-17T01:07:51.984Z,21.90
2024-01-17T01:09:57.243Z,22.70
2024-01-17T01:12:00.873Z,26.00
2024-01-17T01:14:03.905Z,25.00
2024-01-17T01:16:06.821Z,24.30
2024-01-17T01:18:10.154Z,23.90
2024-01-17T01:20:13.864Z,23.80
2024-01-17T01:22:16.723Z,24.00
2024-01-17T01:24:19.320Z,23.90
2024-01-17T01:26:21.860Z,24.00
2024-01-17T01:28:24.516Z,20.80
2024-01-17T01:30:27.341Z,21.40
2024-01-17T01:32:29.970Z,23.30
2024-01-17T01:34:32.713Z,22.80
2024-01-17T01:36:35.555Z,24.40
2024-01-17T01:38:38.215Z,25.90
2024-01-17T01:40:40.899Z,24.70
2024-01-17T01:42:44.116Z,25.30
2024-01-17T01:44:46.899Z,26.80
2024-01-17T01:46:50.240Z,25.60
2024-01-17T01:48:56.463Z,25.20
2024-01-17T01:50:59.693Z,27.00
2024-01-17T01:53:05.507Z,24.50
2024-01-17T01:55:10.066Z,25.70
2024-01-17T01:57:12.798Z,25.80
2024-01-17T01:59:17.149Z,26.00
2024-01-17T02:01:20.135Z,28.20
2024-01-17T02:03:25.349Z,26.20
2024-01-17T02:05:30.603Z,28.00
2024-01-17T02:07:33.870Z,25.70
2024-01-17T02:09:36.645Z,25.10
2024-01-17T02:11:39.631Z,25.50
2024-01-17T02:13:43.586Z,25.40
2024-01-17T02:15:46.353Z,25.50
2024-01-17T02:17:49.087Z,25.80
2024-01-17T02:19:52.875Z,23.60
2024-01-17T02:21:55.429Z,22.80
2024-01-17T02:24:14.270Z,26.80
2024-01-17T02:26:16.836Z,24.50
2024-01-17T02:28:19.515Z,26.30
2024-01-17T02:30:22.355Z,24.40
2024-01-17T02:32:26.110Z,25.00
2024-01-17T02:34:29.143Z,25.40
2024-01-17T02:36:31.822Z,25.80
2024-01-17T02:38:34.408Z,25.50
2024-01-17T02:40:37.247Z,23.30
2024-01-17T02:42:39.865Z,24.50
2024-01-17T02:44:42.457Z,21.80
2024-01-17T02:46:45.010Z,22.90
2024-01-17T02:48:47.736Z,23.10
2024-01-17T02:50:50.486Z,22.30
2024-01-17T02:52:53.151Z,23.50
2024-01-17T02:54:55.692Z,23.40
2024-01-17T02:56:58.286Z,24.20
2024-01-17T02:59:00.922Z,23.10
2024-01-17T03:01:03.966Z,22.70
2024-01-17T03:03:06.723Z,25.70
2024-01-17T03:05:10.652Z,23.50
2024-01-17T03:07:13.473Z,24.50
2024-01-17T03:09:16.461Z,24.80
2024-01-17T03:11:19.075Z,25.20
2024-01-17T03:13:21.672Z,26.70
2024-01-17T03:15:27.211Z,26.00
2024-01-17T03:17:29.825Z,27.40
2024-01-17T03:19:32.552Z,27.20
2024-01-17T03:21:35.288Z,26.60
2024-01-17T03:23:37.880Z,26.20
2024-01-17T03:25:40.414Z,25.50
2024-01-17T03:27:42.957Z,25.80
2024-01-17T03:29:45.580Z,26.40
2024-01-17T03:31:48.565Z,27.60
2024-01-17T03:33:51.549Z,24.60
2024-01-17T03:35:54.322Z,30.40
2024-01-17T03:37:56.957Z,30.50
2024-01-17T03:39:59.768Z,28.60
2024-01-17T03:42:02.642Z,27.20
2024-01-17T03:44:11.130Z,24.70
2024-01-17T03:46:13.768Z,26.40
2024-01-17T03:48:16.502Z,26.10
2024-01-17T03:50:19.144Z,25.30
2024-01-17T03:52:22.672Z,24.00
2024-01-17T03:54:25.279Z,26.00
2024-01-17T03:56:27.921Z,25.80
2024-01-17T03:58:32.641Z,25.60
2024-01-17T04:00:36.634Z,23.70
2024-01-17T04:02:39.236Z,24.00
2024-01-17T04:04:42.244Z,23.50
2024-01-17T04:06:44.905Z,22.20
2024-01-17T04:08:47.477Z,22.90
2024-01-17T04:10:50.017Z,21.00
2024-01-17T04:12:52.660Z,21.40
2024-01-17T04:14:55.999Z,20.70
2024-01-17T04:17:00.157Z,18.80
2024-01-17T04:19:03.109Z,19.00
2024-01-17T04:21:06.106Z,19.20
2024-01-17T04:23:08.923Z,19.80
2024-01-17T04:25:11.874Z,19.60
2024-01-17T04:27:14.466Z,20.10
2024-01-17T04:29:17.055Z,18.90
2024-01-17T04:31:27.108Z,22.90
2024-01-17T04:33:29.733Z,21.40
2024-01-17T04:35:32.366Z,21.20
2024-01-17T04:37:34.993Z,23.70
2024-01-17T04:39:40.659Z,24.20
2024-01-17T04:41:43.261Z,25.00
2024-01-17T04:43:46.163Z,23.00
2024-01-17T04:45:48.720Z,25.70
2024-01-17T04:47:51.537Z,21.70
2024-01-17T04:49:54.404Z,24.50
2024-01-17T04:52:00.483Z,23.80
2024-01-17T04:54:03.852Z,26.20
2024-01-17T04:56:06.835Z,24.20
2024-01-17T04:58:09.397Z,24.50
2024-01-17T05:00:13.381Z,23.60
2024-01-17T05:02:16.078Z,24.40
2024-01-17T05:04:18.706Z,22.10
2024-01-17T05:06:21.405Z,24.80
2024-01-17T05:08:24.055Z,24.50
2024-01-17T05:10:26.571Z,21.90
2024-01-17T05:12:29.248Z,24.20
2024-01-17T05:14:32.008Z,23.40
2024-01-17T05:16:34.550Z,22.90
2024-01-17T05:18:37.149Z,23.60
2024-01-17T05:20:39.907Z,23.30
2024-01-17T05:22:42.522Z,23.60
2024-01-17T05:24:45.144Z,23.20
2024-01-17T05:26:47.814Z,22.80
2024-01-17T05:28:51.150Z,22.50
2024-01-17T05:30:53.822Z,22.20
2024-01-17T05:32:56.501Z,22.40
2024-01-17T05:34:59.060Z,24.00
2024-01-17T05:37:01.713Z,24.20
2024-01-17T05:39:04.430Z,23.00
2024-01-17T05:41:07.050Z,22.70
2024-01-17T05:43:09.627Z,23.00
2024-01-17T05:45:12.265Z,22.10
2024-01-17T05:47:15.949Z,22.90
2024-01-17T05:49:18.536Z,24.10
2024-01-17T05:51:21.244Z,23.20
2024-01-17T05:53:24.159Z,23.40
2024-01-17T05:55:26.970Z,24.80
2024-01-17T05:57:29.604Z,21.90
2024-01-17T05:59:34.771Z,23.90
2024-01-17T06:01:37.351Z,21.30
2024-01-17T06:03:40.016Z,22.90
2024-01-17T06:05:42.628Z,23.20
2024-01-17T06:07:45.195Z,25.70
2024-01-17T06:09:47.920Z,25.50
2024-01-17T06:11:50.603Z,27.00
2024-01-17T06:13:53.243Z,25.00
2024-01-17T06:15:55.808Z,24.00
2024-01-17T06:17:58.415Z,22.80
2024-01-17T06:20:01.240Z,28.40
2024-01-17T06:22:04.275Z,22.90
2024-01-17T06:24:07.072Z,23.70
2024-01-17T06:26:10.183Z,23.10
2024-01-17T06:28:12.824Z,24.70
2024-01-17T06:30:16.218Z,22.80
2024-01-17T06:32:19.008Z,22.80
2024-01-17T06:34:21.726Z,23.80
2024-01-17T06:36:24.392Z,22.60
2024-01-17T06:38:27.009Z,23.40
2024-01-17T06:40:29.681Z,25.00
2024-01-17T06:42:32.414Z,23.60
2024-01-17T06:44:35.068Z,23.70
2024-01-17T06:46:40.502Z,23.60
2024-01-17T06:48:45.514Z,23.90
2024-01-17T06:50:50.235Z,25.30
2024-01-17T06:52:53.933Z,22.50
2024-01-17T06:54:56.538Z,23.50
2024-01-17T06:56:59.220Z,22.90
2024-01-17T06:59:01.799Z,22.30
2024-01-17T07:01:04.830Z,22.50
2024-01-17T07:03:07.734Z,20.90
2024-01-17T07:05:10.750Z,19.70
2024-01-17T07:07:13.341Z,21.60
2024-01-17T07:09:15.949Z,22.80
2024-01-17T07:11:18.597Z,22.50
2024-01-17T07:13:21.340Z,24.00
2024-01-17T07:15:26.674Z,25.00
2024-01-17T07:17:29.393Z,22.40
2024-01-17T07:19:34.829Z,23.60
2024-01-17T07:21:43.055Z,24.10
2024-01-17T07:23:45.704Z,23.90
2024-01-17T07:25:48.458Z,26.00
2024-01-17T07:27:51.000Z,23.50
2024-01-17T07:29:53.644Z,24.70
2024-01-17T07:31:56.190Z,24.90
2024-01-17T07:33:58.790Z,25.20
2024-01-17T07:36:01.559Z,25.20
2024-01-17T07:38:04.603Z,24.50
2024-01-17T07:40:09.448Z,22.40
2024-01-17T07:42:12.187Z,25.20
2024-01-17T07:44:15.117Z,22.00
2024-01-17T07:46:17.862Z,22.90
2024-01-17T07:48:20.658Z,25.80
2024-01-17T07:50:23.479Z,27.00
2024-01-17T07:52:26.061Z,25.60
2024-01-17T07:54:28.658Z,25.80
2024-01-17T07:56:34.337Z,24.60
2024-01-17T07:58:36.949Z,24.20
2024-01-17T08:00:40.109Z,26.40
2024-01-17T08:02:42.873Z,23.60
2024-01-17T08:04:45.535Z,25.70
2024-01-17T08:06:48.273Z,23.80
2024-01-17T08:08:50.936Z,25.50
2024-01-17T08:10:53.567Z,25.40
2024-01-17T08:12:56.191Z,26.20
2024-01-17T08:14:58.828Z,22.40
2024-01-17T08:17:01.584Z,24.40
2024-01-17T08:19:04.289Z,21.70
2024-01-17T08:21:06.912Z,23.60
2024-01-17T08:23:09.670Z,22.20
2024-01-17T08:25:12.526Z,24.30
2024-01-17T08:27:15.502Z,22.70
2024-01-17T08:29:18.448Z,22.50
2024-01-17T08:31:21.778Z,23.30
2024-01-17T08:33:24.704Z,23.10
2024-01-17T08:35:27.769Z,24.90
2024-01-17T08:37:30.679Z,21.50
2024-01-17T08:39:33.516Z,23.60
2024-01-17T08:41:36.525Z,25.70
2024-01-17T08:43:39.414Z,22.20
2024-01-17T08:45:42.540Z,23.10
2024-01-17T08:47:45.470Z,24.60
2024-01-17T08:49:48.176Z,26.10
2024-01-17T08:51:50.883Z,23.70
2024-01-17T08:53:53.535Z,24.20
2024-01-17T08:55:56.162Z,25.10
2024-01-17T08:57:58.802Z,27.80
2024-01-17T09:00:01.589Z,23.10
2024-01-17T09:02:04.741Z,26.80
2024-01-17T09:04:07.400Z,26.40
2024-01-17T09:06:10.195Z,24.10
2024-01-17T09:08:13.472Z,21.80
2024-01-17T09:10:16.349Z,26.00
2024-01-17T09:12:18.963Z,25.10
2024-01-17T09:14:22.045Z,23.30
2024-01-17T09:16:24.764Z,25.70
2024-01-17T09:18:27.617Z,24.50
2024-01-17T09:20:30.277Z,25.60
2024-01-17T09:22:33.173Z,25.90
2024-01-17T09:24:35.880Z,25.30
2024-01-17T09:26:39.376Z,23.80
2024-01-17T09:28:41.995Z,24.60
2024-01-17T09:30:44.728Z,25.00
2024-01-17T09:32:47.452Z,22.50
2024-01-17T09:34:50.325Z,25.90
2024-01-17T09:36:53.150Z,26.30
2024-01-17T09:38:55.863Z,25.00
2024-01-17T09:40:58.644Z,25.00
2024-01-17T09:43:09.498Z,24.70
2024-01-17T09:45:18.048Z,29.90
2024-01-17T09:47:20.869Z,32.30
2024-01-17T09:49:23.656Z,35.70
2024-01-17T09:51:27.994Z,28.70
2024-01-17T09:53:32.142Z,29.20
2024-01-17T09:55:39.206Z,28.10
2024-01-17T09:57:49.049Z,26.40
2024-01-17T09:59:56.911Z,23.90
2024-01-17T10:02:00.431Z,26.80
2024-01-17T10:04:05.233Z,28.60
2024-01-17T10:06:09.639Z,28.50
2024-01-17T10:08:12.558Z,27.90
2024-01-17T10:10:17.458Z,28.20
2024-01-17T10:12:20.196Z,26.80
2024-01-17T10:14:24.273Z,27.70
2024-01-17T10:16:27.367Z,26.40
2024-01-17T10:18:31.650Z,28.00
2024-01-17T10:20:34.746Z,27.70
2024-01-17T10:22:37.692Z,25.90
2024-01-17T10:24:41.052Z,28.10
2024-01-17T10:26:45.363Z,26.30
2024-01-17T10:28:48.298Z,28.40
2024-01-17T10:30:51.390Z,27.90
2024-01-17T10:32:54.445Z,28.30
2024-01-17T10:35:01.365Z,26.20
2024-01-17T10:37:05.664Z,27.40
2024-01-17T10:39:08.485Z,27.00
2024-01-17T10:41:11.887Z,26.50
2024-01-17T10:43:14.473Z,26.30
2024-01-17T10:45:21.062Z,28.50
2024-01-17T10:47:23.818Z,29.50
2024-01-17T10:49:26.551Z,26.50
2024-01-17T10:51:34.452Z,29.40
2024-01-17T10:53:48.145Z,30.40
2024-01-17T10:56:01.452Z,29.70
2024-01-17T10:58:08.675Z,28.70
2024-01-17T11:00:11.917Z,29.80
2024-01-17T11:02:20.605Z,32.60
2024-01-17T11:04:29.188Z,31.50
2024-01-17T11:06:32.100Z,31.80
2024-01-17T11:08:36.930Z,31.80
2024-01-17T11:10:41.199Z,32.20
2024-01-17T11:12:44.464Z,29.60
2024-01-17T11:14:48.904Z,28.40
2024-01-17T11:16:52.350Z,28.90
2024-01-17T11:18:56.691Z,31.70
2024-01-17T11:21:01.362Z,29.90
2024-01-17T11:23:05.412Z,28.20
2024-01-17T11:25:17.903Z,31.70
2024-01-17T11:27:28.399Z,31.40
2024-01-17T11:29:38.067Z,30.80
2024-01-17T11:31:47.009Z,30.00
2024-01-17T11:33:51.042Z,28.30
2024-01-17T11:35:53.827Z,30.80
2024-01-17T11:37:59.455Z,32.10
2024-01-17T11:40:02.153Z,31.80
2024-01-17T11:42:06.442Z,31.90
2024-01-17T11:44:11.037Z,29.20
2024-01-17T11:46:14.092Z,27.70
2024-01-17T11:48:19.295Z,27.90
2024-01-17T11:50:24.584Z,26.70
2024-01-17T11:52:31.404Z,28.70
2024-01-17T11:54:37.901Z,26.80
2024-01-17T11:56:40.646Z,26.90
2024-01-17T11:58:44.128Z,28.90
2024-01-17T12:00:49.682Z,28.70
2024-01-17T12:02:52.474Z,30.00
2024-01-17T12:04:57.984Z,29.50
2024-01-17T12:07:01.332Z,29.60
2024-01-17T12:09:05.075Z,28.20
2024-01-17T12:11:08.539Z,27.80
2024-01-17T12:13:11.175Z,27.60
2024-01-17T12:15:14.580Z,30.50
2024-01-17T12:17:20.815Z,29.10
2024-01-17T12:19:23.661Z,28.20
2024-01-17T12:21:26.698Z,28.90
2024-01-17T12:23:31.004Z,26.30
2024-01-17T12:25:34.841Z,27.30
2024-01-17T12:27:38.981Z,25.70
2024-01-17T12:29:41.680Z,26.80
2024-01-17T12:31:44.348Z,26.90
2024-01-17T12:33:47.162Z,26.60
2024-01-17T12:35:49.871Z,24.60
2024-01-17T12:37:52.835Z,27.30
2024-01-17T12:39:55.447Z,26.60
2024-01-17T12:41:58.128Z,27.10
2024-01-17T12:44:00.997Z,26.50
2024-01-17T12:46:04.469Z,26.90
2024-01-17T12:48:10.209Z,27.90
2024-01-17T12:50:14.294Z,25.50
2024-01-17T12:52:17.749Z,25.70
2024-01-17T12:54:20.571Z,27.20
2024-01-17T12:56:26.220Z,25.90
2024-01-17T12:58:30.800Z,25.50
2024-01-17T13:00:34.972Z,29.70
2024-01-17T13:02:37.922Z,28.30
2024-01-17T13:04:40.682Z,28.20
2024-01-17T13:06:46.952Z,25.60
2024-01-17T13:08:53.151Z,26.40
2024-01-17T13:10:55.783Z,25.80
2024-01-17T13:12:58.382Z,27.50
2024-01-17T13:15:01.042Z,27.70
2024-01-17T13:17:03.720Z,25.00
2024-01-17T13:19:09.445Z,26.60
2024-01-17T13:21:12.941Z,26.50
2024-01-17T13:23:15.883Z,27.50
2024-01-17T13:25:19.206Z,22.30
2024-01-17T13:27:22.914Z,27.20
2024-01-17T13:29:25.518Z,26.30
2024-01-17T13:31:28.136Z,27.60
2024-01-17T13:33:30.813Z,25.60
2024-01-17T13:35:33.568Z,27.00
2024-01-17T13:37:36.651Z,27.60
2024-01-17T13:39:39.328Z,27.90
2024-01-17T13:41:41.888Z,28.50
2024-01-17T13:43:44.719Z,27.80
2024-01-17T13:45:47.487Z,27.50
2024-01-17T13:47:50.276Z,27.60
2024-01-17T13:49:52.902Z,26.40
2024-01-17T13:51:56.543Z,27.30
2024-01-17T13:53:59.833Z,28.80
2024-01-17T13:56:02.491Z,24.90
2024-01-17T13:58:05.325Z,26.10
2024-01-17T14:00:09.890Z,26.10
2024-01-17T14:02:12.494Z,26.00
2024-01-17T14:04:15.199Z,25.90
2024-01-17T14:06:17.959Z,27.60
2024-01-17T14:08:20.856Z,25.60
2024-01-17T14:10:23.626Z,25.40
2024-01-17T14:12:26.221Z,26.20
2024-01-17T14:14:28.879Z,26.10
2024-01-17T14:16:31.483Z,23.90
2024-01-17T14:18:34.318Z,27.70
2024-01-17T14:20:36.995Z,27.40
2024-01-17T14:22:39.590Z,30.70
2024-01-17T14:24:42.237Z,28.60
2024-01-17T14:26:44.898Z,31.60
2024-01-17T14:28:47.697Z,31.20
2024-01-17T14:30:50.950Z,30.50
2024-01-17T14:32:53.603Z,29.60
2024-01-17T14:34:56.549Z,27.90
2024-01-17T14:36:59.262Z,30.40
2024-01-17T14:39:01.976Z,29.70
2024-01-17T14:41:05.179Z,30.00
2024-01-17T14:43:07.939Z,29.00
2024-01-17T14:45:10.793Z,29.10
2024-01-17T14:47:13.458Z,29.30
2024-01-17T14:49:16.385Z,28.40
2024-01-17T14:51:19.292Z,27.80
2024-01-17T14:53:21.973Z,29.50
2024-01-17T14:55:24.945Z,29.30
2024-01-17T14:57:27.635Z,27.40
2024-01-17T14:59:30.480Z,26.60
2024-01-17T15:01:33.478Z,27.60
2024-01-17T15:03:37.089Z,27.80
2024-01-17T15:05:40.325Z,26.00
2024-01-17T15:07:43.299Z,28.60
2024-01-17T15:09:49.865Z,27.70
2024-01-17T15:11:52.845Z,28.80
2024-01-17T15:13:55.543Z,27.30
2024-01-17T15:15:58.491Z,27.80
2024-01-17T15:18:01.597Z,30.10
2024-01-17T15:20:05.968Z,29.10
2024-01-17T15:22:08.625Z,28.80
2024-01-17T15:24:11.201Z,29.00
2024-01-17T15:26:14.009Z,28.60
2024-01-17T15:28:17.025Z,28.80
2024-01-17T15:30:19.994Z,31.10
2024-01-17T15:32:22.714Z,27.80
2024-01-17T15:34:25.658Z,29.30
2024-01-17T15:36:29.041Z,31.10
2024-01-17T15:38:31.989Z,31.80
2024-01-17T15:40:34.718Z,30.10
2024-01-17T15:42:38.834Z,32.70
2024-01-17T15:44:42.179Z,32.10
2024-01-17T15:46:45.044Z,26.40
2024-01-17T15:48:48.750Z,29.40
2024-01-17T15:50:53.035Z,31.40
2024-01-17T15:52:55.981Z,29.70
2024-01-17T15:54:59.212Z,32.10
2024-01-17T15:57:01.950Z,28.00
2024-01-17T15:59:05.519Z,29.60
2024-01-17T16:01:08.308Z,31.60
2024-01-17T16:03:11.354Z,32.00
2024-01-17T16:05:14.502Z,29.10
2024-01-17T16:07:18.083Z,29.50
2024-01-17T16:09:20.928Z,28.30
2024-01-17T16:11:23.820Z,29.60
2024-01-17T16:13:26.425Z,27.60
2024-01-17T16:15:29.098Z,28.60
2024-01-17T16:17:31.772Z,27.70
2024-01-17T16:19:34.482Z,27.90
2024-01-17T16:21:37.090Z,29.20
2024-01-17T16:23:42.476Z,30.20
2024-01-17T16:25:45.735Z,30.30
2024-01-17T16:27:48.426Z,27.20
2024-01-17T16:29:51.099Z,32.20
2024-01-17T16:31:53.772Z,33.60
2024-01-17T16:33:56.543Z,34.30
2024-01-17T16:35:59.276Z,32.60
2024-01-17T16:38:02.286Z,33.30
2024-01-17T16:40:06.968Z,33.60
2024-01-17T16:42:09.792Z,30.00
2024-01-17T16:44:13.348Z,29.80
2024-01-17T16:46:15.990Z,31.70
2024-01-17T16:48:18.664Z,30.40
2024-01-17T16:50:21.775Z,29.00
2024-01-17T16:52:24.398Z,28.10
2024-01-17T16:54:27.277Z,32.70
2024-01-17T16:56:30.838Z,32.90
2024-01-17T16:58:33.538Z,26.70
2024-01-17T17:00:36.373Z,29.80
2024-01-17T17:02:39.210Z,30.90
2024-01-17T17:04:42.229Z,30.00
2024-01-17T17:06:44.925Z,30.50
2024-01-17T17:08:47.721Z,31.10
2024-01-17T17:10:53.273Z,33.10
2024-01-17T17:12:55.903Z,29.80
2024-01-17T17:14:58.899Z,31.20
2024-01-17T17:17:01.833Z,34.80
2024-01-17T17:19:07.582Z,33.90
2024-01-17T17:21:10.768Z,31.50
2024-01-17T17:23:13.661Z,34.60
2024-01-17T17:25:17.267Z,30.20
2024-01-17T17:27:20.147Z,29.30
2024-01-17T17:29:22.852Z,27.50
2024-01-17T17:31:25.603Z,30.50
2024-01-17T17:33:29.554Z,30.80
2024-01-17T17:35:32.285Z,33.40
2024-01-17T17:37:35.176Z,30.10
2024-01-17T17:39:37.741Z,29.70
2024-01-17T17:41:40.950Z,31.20
2024-01-17T17:43:44.779Z,30.80
2024-01-17T17:45:47.502Z,31.50
2024-01-17T17:47:50.253Z,39.90
2024-01-17T17:49:53.184Z,39.00
2024-01-17T17:51:55.912Z,33.40
2024-01-17T17:53:59.345Z,32.10
2024-01-17T17:56:02.164Z,34.50
2024-01-17T17:58:05.037Z,33.60
2024-01-17T18:00:09.551Z,30.80
2024-01-17T18:02:12.328Z,31.60
2024-01-17T18:04:18.248Z,34.20
2024-01-17T18:06:21.310Z,32.70
2024-01-17T18:08:24.122Z,33.70
2024-01-17T18:10:26.865Z,30.50
2024-01-17T18:12:29.927Z,32.80
2024-01-17T18:14:32.564Z,32.10
2024-01-17T18:16:35.315Z,32.90
2024-01-17T18:18:38.150Z,32.60
2024-01-17T18:20:40.927Z,32.20
2024-01-17T18:22:43.623Z,31.40
2024-01-17T18:24:46.264Z,31.30
2024-01-17T18:26:49.392Z,33.30
2024-01-17T18:28:52.183Z,33.70
2024-01-17T18:30:54.786Z,34.40
2024-01-17T18:32:57.731Z,31.10
2024-01-17T18:35:01.726Z,31.90
2024-01-17T18:37:05.044Z,32.40
2024-01-17T18:39:07.812Z,32.60
2024-01-17T18:41:11.459Z,30.70
2024-01-17T18:43:14.147Z,43.20
2024-01-17T18:45:16.827Z,31.90
2024-01-17T18:47:19.532Z,44.80
2024-01-17T18:49:22.251Z,33.10
2024-01-17T18:51:24.991Z,34.70
2024-01-17T18:53:27.743Z,33.10
2024-01-17T18:55:30.458Z,33.90
2024-01-17T18:57:33.174Z,33.60
2024-01-17T18:59:35.879Z,33.40
2024-01-17T19:01:38.766Z,30.80
2024-01-17T19:03:41.568Z,29.90
2024-01-17T19:05:44.557Z,33.30
2024-01-17T19:07:47.261Z,35.50
2024-01-17T19:09:50.459Z,30.50
2024-01-17T19:11:53.229Z,31.70
2024-01-17T19:13:56.299Z,32.80
2024-01-17T19:15:59.089Z,34.20
2024-01-17T19:18:01.956Z,31.90
2024-01-17T19:20:06.388Z,31.20
2024-01-17T19:22:11.610Z,32.80
2024-01-17T19:24:14.722Z,35.30
2024-01-17T19:26:17.412Z,48.50
2024-01-17T19:28:20.045Z,37.00
2024-01-17T19:30:24.621Z,37.10
2024-01-17T19:32:27.993Z,43.30
2024-01-17T19:34:30.732Z,38.70
2024-01-17T19:36:34.874Z,32.40
2024-01-17T19:38:37.839Z,33.50
2024-01-17T19:40:40.900Z,32.10
2024-01-17T19:42:43.769Z,32.10
2024-01-17T19:44:46.451Z,32.90
2024-01-17T19:46:49.877Z,31.40
2024-01-17T19:48:53.138Z,32.70
2024-01-17T19:50:55.995Z,33.80
2024-01-17T19:52:58.688Z,32.10
2024-01-17T19:55:01.556Z,31.70
2024-01-17T19:57:04.903Z,30.40
2024-01-17T19:59:07.537Z,32.90
2024-01-17T20:01:10.398Z,34.00
2024-01-17T20:03:13.247Z,33.90
2024-01-17T20:05:16.275Z,31.80
2024-01-17T20:07:19.092Z,32.50
2024-01-17T20:09:21.927Z,33.80
2024-01-17T20:11:24.691Z,31.90
2024-01-17T20:13:27.313Z,31.90
2024-01-17T20:15:30.089Z,32.20
2024-01-17T20:17:33.049Z,32.90
2024-01-17T20:19:35.839Z,33.10
2024-01-17T20:21:38.727Z,31.70
2024-01-17T20:23:41.418Z,30.20
2024-01-17T20:25:44.050Z,30.60
2024-01-17T20:27:47.002Z,39.40
2024-01-17T20:29:49.811Z,36.30
2024-01-17T20:31:52.648Z,34.30
2024-01-17T20:33:55.376Z,31.30
2024-01-17T20:35:58.118Z,31.80
2024-01-17T20:38:00.705Z,32.60
2024-01-17T20:40:03.945Z,33.60
2024-01-17T20:42:06.992Z,31.70
2024-01-17T20:44:09.722Z,32.60
2024-01-17T20:46:12.387Z,31.70
2024-01-17T20:48:15.431Z,28.40
2024-01-17T20:50:18.139Z,30.90
2024-01-17T20:52:20.990Z,32.40
2024-01-17T20:54:23.718Z,30.60
2024-01-17T20:56:26.494Z,29.70
2024-01-17T20:58:29.435Z,31.20
2024-01-17T21:00:32.271Z,44.90
2024-01-17T21:02:35.093Z,34.30
2024-01-17T21:04:40.838Z,31.20
2024-01-17T21:06:45.158Z,32.30
2024-01-17T21:08:47.892Z,34.10
2024-01-17T21:10:50.527Z,31.60
2024-01-17T21:12:53.694Z,32.80
2024-01-17T21:14:56.462Z,33.80
2024-01-17T21:16:59.347Z,30.50
2024-01-17T21:19:02.189Z,30.40
2024-01-17T21:21:05.266Z,30.60
2024-01-17T21:23:07.966Z,29.10
2024-01-17T21:25:10.773Z,30.70
2024-01-17T21:27:13.412Z,30.50
2024-01-17T21:29:16.058Z,32.20
2024-01-17T21:31:19.324Z,29.60
2024-01-17T21:33:22.007Z,29.70
2024-01-17T21:35:24.638Z,30.00
2024-01-17T21:37:27.294Z,27.90
2024-01-17T21:39:30.146Z,28.30
2024-01-17T21:41:32.866Z,27.50
2024-01-17T21:43:35.506Z,26.70
2024-01-17T21:45:38.308Z,29.90
2024-01-17T21:47:41.023Z,27.90
2024-01-17T21:49:43.705Z,28.00
2024-01-17T21:51:46.368Z,29.60
2024-01-17T21:53:49.366Z,27.20
2024-01-17T21:55:51.967Z,30.90
2024-01-17T21:57:54.606Z,27.70
2024-01-17T21:59:57.175Z,30.80
2024-01-17T22:01:59.794Z,28.30
2024-01-17T22:04:02.909Z,27.30
2024-01-17T22:06:06.960Z,29.30
2024-01-17T22:08:09.640Z,28.40
2024-01-17T22:10:12.406Z,30.70
2024-01-17T22:12:15.002Z,33.20
2024-01-17T22:14:17.750Z,30.80
2024-01-17T22:16:20.414Z,30.80
2024-01-17T22:18:23.067Z,30.80
2024-01-17T22:20:25.674Z,31.00
2024-01-17T22:22:28.332Z,32.40
2024-01-17T22:24:30.980Z,29.20
2024-01-17T22:26:33.643Z,31.50
2024-01-17T22:28:36.396Z,30.80
2024-01-17T22:30:41.811Z,30.50
2024-01-17T22:32:44.520Z,30.90
2024-01-17T22:34:47.342Z,32.00
2024-01-17T22:36:50.018Z,42.90
2024-01-17T22:38:55.539Z,28.50
2024-01-17T22:41:01.231Z,31.60
2024-01-17T22:43:04.201Z,33.70
2024-01-17T22:45:08.536Z,29.60
2024-01-17T22:47:11.228Z,32.30
2024-01-17T22:49:13.889Z,32.40
2024-01-17T22:51:16.644Z,29.30
2024-01-17T22:53:19.268Z,31.10
2024-01-17T22:55:21.924Z,30.40
2024-01-17T22:57:24.646Z,33.00
2024-01-17T22:59:27.262Z,30.00
2024-01-17T23:01:29.879Z,30.00
2024-01-17T23:03:32.746Z,30.30
2024-01-17T23:05:38.227Z,31.10
2024-01-17T23:07:40.817Z,30.30
2024-01-17T23:09:46.216Z,29.20
2024-01-17T23:11:48.797Z,27.40
2024-01-17T23:13:51.571Z,30.70
2024-01-17T23:15:54.224Z,26.30
2024-01-17T23:17:57.172Z,27.00
2024-01-17T23:20:00.097Z,27.10
2024-01-17T23:22:03.168Z,27.20
2024-01-17T23:24:06.772Z,27.90
2024-01-17T23:26:09.341Z,29.80
2024-01-17T23:28:14.785Z,26.40
2024-01-17T23:30:18.209Z,26.40
2024-01-17T23:32:20.893Z,28.40
2024-01-17T23:34:23.530Z,26.00
2024-01-17T23:36:26.245Z,26.40
2024-01-17T23:38:28.807Z,29.50
2024-01-17T23:40:31.353Z,28.80
2024-01-17T23:42:38.219Z,28.80
2024-01-17T23:44:41.697Z,28.60
2024-01-17T23:46:44.288Z,29.60
2024-01-17T23:48:46.944Z,29.80
2024-01-17T23:50:49.650Z,30.60
2024-01-17T23:52:52.294Z,28.80
2024-01-17T23:54:54.898Z,31.10
2024-01-17T23:56:57.474Z,27.70
2024-01-17T23:59:00.115Z,29.10
